New Salem, Kansas
Current Conditions -  °F | °C
As of 10:54 AM on Thursday 18 Dec 2014 (Local Time) from KWLD Reporting Station
Haze Haze  
Wind Chill: 33°   Ceiling: 200
Heat Index: 33°   Visibility: 1.2mi
Dew Point: 33°   Wind: 0mph
Humidity: 100%   Direction: NA
Pressure: 30.21"   Gusts: NA
Location:  37.2455°N, 96.9242°W
Report Text: KWLD 181654Z AUTO 00000KT 1 1/4SM BR OVC002 01/01 A3021 RMK AO2 SLP242 T00060006
Loading
Personal Weather Stations






























Interactive Weather Map New forecast layout! Learn more

10-Day Weather Forecast

Advertisements
Track Severe Weather on mobile